Time;durP1;ratioP1;P1;durP2;ratioP2;P2;SDS_P1;SDS_P2;PMS_P1;PMS_P2;Temp;Humidity;BMP_temperature;BMP_pressure;BME280_temperature;BME280_humidity;BME280_pressure;Samples;Min_cycle;Max_cycle;Signal;HPM_P1;HPM_P2
2021/12/12 00:04:09;;;;;;;;;;;19.50;57.20;;;23.69;33.96;95251.88;5995665;19;19926;-80
2021/12/12 00:06:24;;;;;;;;;;;19.60;57.20;;;23.71;33.93;95249.59;6065345;19;20006;-78
2021/12/12 00:08:25;;;;;;;;;;;19.50;57.10;;;23.73;33.72;95250.06;6077687;19;20392;-78
2021/12/12 00:10:29;;;;;;;;;;;19.50;57.10;;;23.72;33.62;95253.91;6083007;19;19923;-78
2021/12/12 00:12:32;;;;;;;;;;;19.50;57.10;;;23.72;33.70;95254.72;6075366;19;19930;-78
2021/12/12 00:14:34;;;;;;;;;;;19.60;57.10;;;23.73;33.59;95266.41;6081053;19;21375;-80
2021/12/12 00:16:35;;;;;;;;;;;19.50;57.10;;;23.72;33.41;95265.59;6059343;19;19990;-80
2021/12/12 00:18:36;;;;;;;;;;;19.50;57.00;;;23.72;33.57;95264.81;6090477;19;20955;-79
2021/12/12 00:20:37;;;;;;;;;;;19.50;57.10;;;23.72;33.53;95270.25;6087983;19;19926;-79
2021/12/12 00:22:38;;;;;;;;;;;19.50;57.00;;;23.72;33.51;95270.25;6083208;19;19919;-78
2021/12/12 00:24:39;;;;;;;;;;;19.50;57.00;;;23.72;33.54;95278.41;6080506;19;19943;-81
2021/12/12 00:26:41;;;;;;;;;;;19.50;56.90;;;23.71;33.71;95271.38;6089455;19;20030;-79
2021/12/12 00:28:42;;;;;;;;;;;19.50;56.90;;;23.71;33.86;95274.09;6085914;19;19997;-77
2021/12/12 00:30:43;;;;;;;;;;;19.50;56.90;;;23.71;33.70;95283.06;6093900;19;19919;-79
2021/12/12 00:32:44;;;;;;;;;;;19.50;56.90;;;23.71;33.61;95288.50;6094265;19;19974;-78
2021/12/12 00:34:51;;;;;;;;;;;19.50;56.90;;;23.70;33.54;95278.75;6093042;19;19957;-78
2021/12/12 00:36:52;;;;;;;;;;;19.60;57.00;;;23.71;33.78;95293.16;6077964;19;19915;-78
2021/12/12 00:38:57;;;;;;;;;;;19.50;56.90;;;23.72;33.70;95289.31;6088623;19;19922;-80
2021/12/12 00:41:04;;;;;;;;;;;19.50;56.90;;;23.71;33.84;95295.88;6089524;19;19922;-78
2021/12/12 00:43:09;;;;;;;;;;;19.50;56.90;;;23.72;33.45;95292.03;6083229;19;19918;-80
2021/12/12 00:45:11;;;;;;;;;;;19.50;56.90;;;23.72;33.56;95297.47;6090117;19;19921;-78
2021/12/12 00:47:12;;;;;;;;;;;19.50;56.90;;;23.72;33.29;95289.31;6090381;19;19919;-77
2021/12/12 00:49:15;;;;;;;;;;;19.50;56.90;;;23.72;33.81;95294.75;6086633;19;20919;-78
2021/12/12 00:51:20;;;;;;;;;;;19.50;56.90;;;23.73;33.76;95288.97;6075490;19;19914;-77
2021/12/12 00:53:22;;;;;;;;;;;19.50;56.80;;;23.73;33.69;95296.34;6082451;19;20365;-77
2021/12/12 00:55:22;;;;;;;;;;;19.60;57.00;;;23.74;33.79;95297.94;6094378;19;20351;-78
2021/12/12 00:57:23;;;;;;;;;;;19.60;56.90;;;23.73;33.54;95299.06;6095243;19;19996;-79
2021/12/12 00:59:24;;;;;;;;;;;19.50;56.90;;;23.72;33.34;95290.09;6100867;19;20755;-79
2021/12/12 01:01:35;;;;;;;;;;;19.60;56.90;;;23.74;33.37;95301.47;6075918;19;20691;-77
2021/12/12 01:03:42;;;;;;;;;;;19.60;56.90;;;23.74;33.61;95301.47;6086653;19;19915;-81
2021/12/12 01:05:44;;;;;;;;;;;19.60;56.90;;;23.74;33.79;95297.94;6086216;19;20563;-78
2021/12/12 01:07:46;;;;;;;;;;;19.60;56.90;;;23.75;33.75;95302.25;6091664;19;19951;-79
2021/12/12 01:09:53;;;;;;;;;;;19.60;56.90;;;23.75;33.75;95291.38;6093474;19;19914;-76
2021/12/12 01:11:56;;;;;;;;;;;19.60;56.90;;;23.75;33.42;95291.38;6099755;19;20121;-81
2021/12/12 01:13:57;;;;;;;;;;;19.70;57.00;;;23.75;33.51;95302.25;6101911;19;19923;-79
2021/12/12 01:16:05;;;;;;;;;;;19.50;56.80;;;23.75;33.46;95308.50;6084796;19;19947;-81
2021/12/12 01:18:15;;;;;;;;;;;19.60;56.90;;;23.75;33.76;95304.97;6097278;19;20776;-81
2021/12/12 01:20:31;;;;;;;;;;;19.60;56.90;;;23.76;33.65;95312.03;6092425;19;19918;-80
2021/12/12 01:22:35;;;;;;;;;;;19.60;56.80;;;23.75;33.74;95308.50;6098374;19;19914;-80
2021/12/12 01:24:40;;;;;;;;;;;19.60;56.80;;;23.75;33.28;95311.22;6093913;19;19930;-80
2021/12/12 01:26:41;;;;;;;;;;;19.60;56.80;;;23.76;33.56;95303.84;6099585;19;20427;-82
2021/12/12 01:28:45;;;;;;;;;;;19.60;56.90;;;23.77;33.35;95312.81;6098447;19;19922;-80
2021/12/12 01:30:46;;;;;;;;;;;19.60;56.80;;;23.77;33.55;95308.16;6093017;19;19917;-78
2021/12/12 01:32:47;;;;;;;;;;;19.60;56.80;;;23.76;33.63;95312.03;6100894;19;20360;-79
2021/12/12 01:34:51;;;;;;;;;;;19.60;56.80;;;23.77;33.47;95320.97;6098493;19;20347;-78
2021/12/12 01:37:22;;;;;;;;;;;19.60;56.80;;;23.77;33.63;95319.06;6096300;19;20395;-81
2021/12/12 01:39:24;;;;;;;;;;;19.60;56.80;;;23.78;33.41;95331.53;6091880;19;19919;-81
2021/12/12 01:41:41;;;;;;;;;;;19.60;56.80;;;23.77;33.71;95329.94;6102123;19;19923;-81
2021/12/12 01:43:44;;;;;;;;;;;19.60;56.70;;;23.77;33.41;95329.16;6094822;19;19914;-80
2021/12/12 01:45:47;;;;;;;;;;;19.60;56.70;;;23.78;33.27;95342.44;6082155;19;19974;-79
2021/12/12 01:47:55;;;;;;;;;;;19.60;56.70;;;23.79;33.27;95343.22;6092577;19;19986;-81
2021/12/12 01:49:58;;;;;;;;;;;19.60;56.70;;;23.79;33.54;95352.19;6090071;19;19944;-81
2021/12/12 01:51:59;;;;;;;;;;;19.60;56.70;;;23.79;33.50;95343.22;6093817;19;19986;-81
2021/12/12 01:54:03;;;;;;;;;;;19.60;56.70;;;23.79;33.57;95356.84;6097097;19;20559;-76
2021/12/12 01:56:13;;;;;;;;;;;19.60;56.80;;;23.79;33.28;95354.91;6094363;19;19925;-79
2021/12/12 01:58:18;;;;;;;;;;;19.60;56.70;;;23.78;33.64;95353.31;6095031;19;19910;-78
2021/12/12 02:00:41;;;;;;;;;;;19.70;56.80;;;23.79;33.23;95362.28;6091813;19;19942;-79
2021/12/12 02:02:42;;;;;;;;;;;19.60;56.70;;;23.79;33.34;95354.91;6094980;19;19937;-78
2021/12/12 02:04:46;;;;;;;;;;;19.60;56.70;;;23.80;33.50;95361.16;6083467;19;20042;-80
2021/12/12 02:06:49;;;;;;;;;;;19.70;56.80;;;23.80;33.46;95366.59;6085986;19;19931;-79
2021/12/12 02:08:51;;;;;;;;;;;19.60;56.70;;;23.80;33.56;95364.69;6095432;19;19914;-78
2021/12/12 02:10:58;;;;;;;;;;;19.70;56.70;;;23.80;33.54;95353.78;6095217;19;19914;-78
2021/12/12 02:13:04;;;;;;;;;;;19.60;56.70;;;23.80;33.66;95355.72;6097491;19;19935;-78
2021/12/12 02:15:07;;;;;;;;;;;19.70;56.70;;;23.80;33.34;95347.56;6093938;19;19911;-78
2021/12/12 02:17:20;;;;;;;;;;;19.70;56.80;;;23.79;33.52;95357.66;6102019;19;19934;-77
2021/12/12 02:19:35;;;;;;;;;;;19.70;56.80;;;23.79;33.40;95357.66;6095108;19;20229;-77
2021/12/12 02:22:00;;;;;;;;;;;19.70;56.70;;;23.79;33.67;95360.38;6099069;19;19919;-78
2021/12/12 02:35:53;;;;;;;;;;;19.60;56.60;;;23.80;33.52;95363.88;6100741;19;19919;-77
2021/12/12 02:37:56;;;;;;;;;;;19.60;56.60;;;23.81;33.30;95357.31;6086256;19;19978;-79
2021/12/12 02:39:57;;;;;;;;;;;19.70;56.70;;;23.81;33.73;95355.38;6079895;19;19919;-79
2021/12/12 02:42:02;;;;;;;;;;;19.70;56.70;;;23.81;33.56;95349.16;6092990;19;19983;-80
2021/12/12 02:44:04;;;;;;;;;;;19.70;56.70;;;23.82;33.52;95356.19;6093663;19;19926;-80
2021/12/12 02:46:06;;;;;;;;;;;19.70;56.70;;;23.82;33.57;95358.91;6089391;19;20017;-79
2021/12/12 02:48:09;;;;;;;;;;;19.60;56.60;;;23.82;33.34;95362.44;6084151;19;20577;-80
2021/12/12 02:50:15;;;;;;;;;;;19.70;56.70;;;23.83;33.35;95371.41;6099350;19;20363;-78
2021/12/12 02:52:17;;;;;;;;;;;19.70;56.70;;;23.83;33.48;95363.22;6079679;19;19915;-78
2021/12/12 02:54:18;;;;;;;;;;;19.70;56.70;;;23.82;33.44;95370.59;6089341;19;19934;-80
2021/12/12 02:56:23;;;;;;;;;;;19.60;56.60;;;23.83;33.63;95371.41;6101353;19;19946;-80
2021/12/12 02:58:24;;;;;;;;;;;19.70;56.70;;;23.82;33.59;95370.59;6091367;19;19926;-78
2021/12/12 03:00:27;;;;;;;;;;;19.70;56.70;;;23.83;33.42;95377.63;6094689;19;19931;-81
2021/12/12 03:02:30;;;;;;;;;;;19.70;56.70;;;23.81;33.32;95369.00;6092657;19;19915;-80
2021/12/12 03:04:32;;;;;;;;;;;19.70;56.60;;;23.82;33.27;95381.50;6095063;19;19915;-79
2021/12/12 03:06:34;;;;;;;;;;;19.60;56.50;;;23.81;33.64;95377.16;6093748;19;21038;-78
2021/12/12 03:08:36;;;;;;;;;;;19.70;56.70;;;23.82;33.49;95373.31;6092480;19;21570;-78
2021/12/12 03:10:40;;;;;;;;;;;19.70;56.70;;;23.82;33.60;95378.75;6092521;19;19914;-80
2021/12/12 03:12:41;;;;;;;;;;;19.70;56.60;;;23.82;33.27;95384.22;6092902;19;19922;-82
2021/12/12 03:14:43;;;;;;;;;;;19.70;56.60;;;23.82;33.27;95386.94;6093616;19;20704;-79
2021/12/12 03:16:45;;;;;;;;;;;19.70;56.60;;;23.82;33.50;95389.66;6085965;19;20598;-81
2021/12/12 03:18:46;;;;;;;;;;;19.70;56.70;;;23.83;33.71;95387.72;6094471;19;19921;-81
2021/12/12 03:20:51;;;;;;;;;;;19.70;56.60;;;23.82;33.39;95376.03;6093728;19;19995;-81
2021/12/12 03:23:00;;;;;;;;;;;19.70;56.60;;;23.83;33.35;95374.13;6092412;19;21098;-77
2021/12/12 03:25:01;;;;;;;;;;;19.60;56.50;;;23.83;33.53;95387.72;6098756;19;20253;-78
2021/12/12 03:27:03;;;;;;;;;;;19.70;56.70;;;23.83;33.51;95388.53;6101952;19;19910;-83
2021/12/12 03:29:05;;;;;;;;;;;19.70;56.60;;;23.82;33.21;95386.94;6095829;19;19922;-78
2021/12/12 03:31:10;;;;;;;;;;;19.70;56.60;;;23.83;33.38;95379.56;6091857;19;19918;-77
2021/12/12 03:33:11;;;;;;;;;;;19.70;56.60;;;23.84;33.34;95378.44;6074829;19;19935;-80
2021/12/12 03:35:12;;;;;;;;;;;19.70;56.60;;;23.84;33.59;95381.16;6089362;19;20459;-78
2021/12/12 03:37:17;;;;;;;;;;;19.70;56.60;;;23.83;33.51;95371.41;6074038;19;19914;-78
2021/12/12 03:39:32;;;;;;;;;;;19.60;56.50;;;23.83;33.43;95372.19;6068136;19;19922;-81
2021/12/12 03:41:34;;;;;;;;;;;19.70;56.60;;;23.83;33.58;95372.19;6080538;19;20309;-80
2021/12/12 03:43:35;;;;;;;;;;;19.70;56.60;;;23.85;33.38;95380.84;6087012;19;19978;-81
2021/12/12 03:45:37;;;;;;;;;;;19.70;56.60;;;23.83;33.30;95377.63;6079282;19;20026;-80
2021/12/12 03:47:42;;;;;;;;;;;19.70;56.60;;;23.83;33.20;95383.09;6080381;19;19915;-78
2021/12/12 03:49:43;;;;;;;;;;;19.70;56.60;;;23.83;33.43;95383.09;6076655;19;20824;-78
2021/12/12 03:51:45;;;;;;;;;;;19.70;56.60;;;23.85;33.67;95385.47;6082944;19;20366;-79
2021/12/12 03:53:47;;;;;;;;;;;19.70;56.60;;;23.84;33.15;95379.25;6081368;19;19937;-80
2021/12/12 03:55:48;;;;;;;;;;;19.70;56.50;;;23.84;33.19;95383.88;6080059;19;19919;-81
2021/12/12 03:57:49;;;;;;;;;;;19.70;56.60;;;23.84;33.59;95392.84;6078737;19;19982;-81
2021/12/12 03:59:50;;;;;;;;;;;19.70;56.50;;;23.83;33.62;95383.09;6087482;19;20319;-80
2021/12/12 04:01:53;;;;;;;;;;;19.70;56.50;;;23.83;33.47;95383.09;6080059;19;20261;-80
2021/12/12 04:03:55;;;;;;;;;;;19.70;56.50;;;23.83;33.21;95372.19;6087674;19;20256;-79
2021/12/12 04:05:59;;;;;;;;;;;19.70;56.60;;;23.82;33.61;95377.97;6093278;19;19949;-81
2021/12/12 04:08:01;;;;;;;;;;;19.70;56.50;;;23.83;33.50;95379.56;6089168;19;20030;-79
2021/12/12 04:10:03;;;;;;;;;;;19.70;56.50;;;23.83;33.21;95382.28;6086570;19;19944;-77
2021/12/12 04:12:08;;;;;;;;;;;19.70;56.50;;;23.81;33.36;95388.06;6090509;19;19911;-77
2021/12/12 04:14:09;;;;;;;;;;;19.70;56.60;;;23.80;33.28;95385.66;6082852;19;19923;-78
2021/12/12 04:16:10;;;;;;;;;;;19.70;56.50;;;23.80;33.10;95385.66;6088087;19;19950;-78
2021/12/12 04:18:11;;;;;;;;;;;19.70;56.50;;;23.79;33.05;95387.59;6095087;19;20360;-79
2021/12/12 04:20:20;;;;;;;;;;;19.70;56.60;;;23.78;33.38;95391.44;6093321;19;19931;-79
2021/12/12 04:22:21;;;;;;;;;;;19.70;56.50;;;23.77;33.43;95392.56;6087113;19;19925;-79
2021/12/12 04:24:32;;;;;;;;;;;19.70;56.50;;;23.76;33.28;95385.53;6095424;19;19919;-80
2021/12/12 04:26:37;;;;;;;;;;;19.60;56.40;;;23.74;33.14;95396.75;6097123;19;19923;-78
2021/12/12 04:28:38;;;;;;;;;;;19.60;56.50;;;23.73;33.12;95400.59;6094317;19;19966;-79
2021/12/12 04:30:39;;;;;;;;;;;19.60;56.40;;;23.72;33.53;95409.09;6090508;19;19915;-81
2021/12/12 04:32:41;;;;;;;;;;;19.70;56.60;;;23.72;33.60;95409.09;6093256;19;19915;-78
2021/12/12 04:34:46;;;;;;;;;;;19.60;56.50;;;23.70;33.59;95403.97;6091786;19;19922;-78
2021/12/12 04:36:48;;;;;;;;;;;19.60;56.50;;;23.69;33.52;95405.09;6087643;19;19919;-79
2021/12/12 04:38:49;;;;;;;;;;;19.60;56.50;;;23.70;33.49;95411.34;6083048;19;20063;-78
2021/12/12 04:40:50;;;;;;;;;;;19.60;56.50;;;23.67;33.34;95403.81;6093233;19;19990;-79
2021/12/12 04:42:52;;;;;;;;;;;19.60;56.50;;;23.69;33.29;95412.47;6092218;19;19915;-79
2021/12/12 04:45:21;;;;;;;;;;;19.60;56.50;;;23.67;33.34;95410.06;6096120;19;20009;-78
2021/12/12 04:50:23;;;;;;;;;;;19.60;56.50;;;23.67;33.54;95428.31;6083198;19;19914;-79
2021/12/12 04:52:33;;;;;;;;;;;19.60;56.50;;;23.68;33.53;95424.47;6092235;19;19923;-78
2021/12/12 04:54:43;;;;;;;;;;;19.60;56.50;;;23.68;33.32;95435.34;6077690;19;19918;-80
2021/12/12 04:56:58;;;;;;;;;;;19.60;56.50;;;23.69;33.20;95426.88;6085501;19;19919;-78
2021/12/12 04:59:02;;;;;;;;;;;19.60;56.50;;;23.71;33.52;95431.97;6086992;19;19943;-78
2021/12/12 05:01:15;;;;;;;;;;;19.60;56.60;;;23.72;33.59;95426.22;6082386;19;19914;-81
2021/12/12 05:03:21;;;;;;;;;;;19.60;56.60;;;23.74;33.77;95434.06;6087017;19;19950;-79
2021/12/12 05:05:30;;;;;;;;;;;19.60;56.60;;;23.73;33.76;95430.53;6089008;19;19930;-80
2021/12/12 05:08:04;;;;;;;;;;;19.60;56.60;;;23.76;33.38;95431.81;6088059;19;19978;-78
2021/12/12 05:10:37;;;;;;;;;;;19.60;56.60;;;23.75;33.61;95432.94;6086922;19;19910;-81
2021/12/12 05:12:41;;;;;;;;;;;19.70;56.70;;;23.77;33.25;95438.84;6091492;19;19972;-81
2021/12/12 05:14:46;;;;;;;;;;;19.70;56.70;;;23.78;33.74;95447.81;6080425;19;19919;-78
2021/12/12 05:16:47;;;;;;;;;;;19.70;56.60;;;23.79;33.25;95444.75;6089732;19;19922;-79
2021/12/12 05:18:51;;;;;;;;;;;19.70;56.60;;;23.80;33.26;95448.28;6074500;19;19911;-80
2021/12/12 05:20:56;;;;;;;;;;;19.70;56.70;;;23.80;33.44;95454.53;6089189;19;20475;-79
2021/12/12 05:22:58;;;;;;;;;;;19.70;56.70;;;23.81;33.35;95458.06;6087279;19;20803;-77
2021/12/12 05:25:03;;;;;;;;;;;19.70;56.70;;;23.81;33.22;95456.13;6092557;19;19918;-77
2021/12/12 05:27:07;;;;;;;;;;;19.60;56.60;;;23.81;33.63;95444.44;6091610;19;19915;-78
2021/12/12 05:29:13;;;;;;;;;;;19.70;56.60;;;23.81;33.61;95456.13;6079964;19;19923;-80
2021/12/12 05:31:15;;;;;;;;;;;19.60;56.50;;;23.81;33.33;95463.50;6084546;19;19922;-79
2021/12/12 05:33:16;;;;;;;;;;;19.70;56.60;;;23.80;33.26;95459.97;6085089;19;19918;-78
2021/12/12 05:35:21;;;;;;;;;;;19.70;56.60;;;23.80;33.61;95462.69;6086185;19;19932;-78
2021/12/12 05:37:22;;;;;;;;;;;19.60;56.50;;;23.80;33.45;95459.97;6093893;19;19947;-78
2021/12/12 05:39:22;;;;;;;;;;;19.70;56.60;;;23.80;33.51;95464.63;6095358;19;20003;-80
2021/12/12 05:41:23;;;;;;;;;;;19.70;56.60;;;23.80;33.37;95464.63;6101509;19;20336;-80
2021/12/12 05:43:24;;;;;;;;;;;19.70;56.60;;;23.80;33.20;95472.78;6097077;19;19994;-79
2021/12/12 05:45:26;;;;;;;;;;;19.70;56.60;;;23.80;33.57;95476.31;6102954;19;19943;-80
2021/12/12 05:47:27;;;;;;;;;;;19.70;56.60;;;23.79;33.29;95474.72;6108798;19;20876;-78
2021/12/12 05:49:28;;;;;;;;;;;19.70;56.60;;;23.80;33.45;95478.22;6098303;19;19923;-77
2021/12/12 05:51:29;;;;;;;;;;;19.70;57.20;;;23.81;33.24;95471.66;6092119;19;19925;-78
2021/12/12 05:53:29;;;;;;;;;;;19.60;56.50;;;23.79;33.62;95472.00;6088276;19;19919;-80
2021/12/12 05:55:32;;;;;;;;;;;19.70;56.60;;;23.80;33.20;95464.63;6082132;19;19915;-76
2021/12/12 05:57:33;;;;;;;;;;;19.70;56.60;;;23.80;33.24;95457.25;6095133;19;20399;-79
2021/12/12 05:59:34;;;;;;;;;;;19.70;56.60;;;23.81;33.44;95466.22;6090518;19;20568;-78
2021/12/12 06:01:35;;;;;;;;;;;19.60;56.50;;;23.81;33.18;95463.50;6085221;19;19922;-79
2021/12/12 06:03:39;;;;;;;;;;;19.70;56.50;;;23.81;33.23;95472.47;6089082;19;19918;-78
2021/12/12 06:05:40;;;;;;;;;;;19.70;56.60;;;23.82;33.38;95468.63;6089084;19;19918;-79
2021/12/12 06:07:40;;;;;;;;;;;19.70;56.50;;;23.83;33.19;95472.94;6088644;19;19918;-81
2021/12/12 06:09:41;;;;;;;;;;;19.70;56.60;;;23.82;33.47;95475.97;6095778;19;19923;-80
2021/12/12 06:11:44;;;;;;;;;;;19.70;56.60;;;23.82;33.55;95482.22;6099337;19;19922;-79
2021/12/12 06:13:45;;;;;;;;;;;19.60;56.40;;;23.81;33.38;95494.25;6086862;19;19925;-78
2021/12/12 06:15:50;;;;;;;;;;;19.60;56.40;;;23.83;33.17;95494.72;6085228;19;19930;-79
2021/12/12 06:17:51;;;;;;;;;;;19.70;56.50;;;23.83;33.30;95491.19;6097883;19;19920;-79
2021/12/12 06:19:52;;;;;;;;;;;19.70;56.50;;;23.82;33.49;95487.66;6094473;19;19919;-80
2021/12/12 06:21:55;;;;;;;;;;;19.70;56.50;;;23.82;33.09;95489.59;6100322;19;19936;-80
2021/12/12 06:23:58;;;;;;;;;;;19.70;56.60;;;23.82;33.17;95487.66;6098776;19;19926;-78
2021/12/12 06:25:58;;;;;;;;;;;19.70;56.60;;;23.80;33.34;95492.66;6093238;19;20748;-80
2021/12/12 06:27:59;;;;;;;;;;;19.70;56.50;;;23.83;33.38;95493.91;6082739;19;20230;-79
2021/12/12 06:30:00;;;;;;;;;;;19.70;56.50;;;23.83;33.54;95502.09;6088704;19;19915;-80
2021/12/12 06:32:03;;;;;;;;;;;19.70;56.50;;;23.82;33.35;95501.28;6092562;19;19919;-79
2021/12/12 06:34:03;;;;;;;;;;;19.70;56.60;;;23.82;33.17;95495.84;6096485;19;19923;-80
2021/12/12 06:36:10;;;;;;;;;;;19.80;56.60;;;23.81;33.54;95502.41;6092909;19;19918;-81
2021/12/12 06:38:12;;;;;;;;;;;19.60;56.40;;;23.82;33.32;95501.28;6096739;19;19915;-80
2021/12/12 06:40:16;;;;;;;;;;;19.70;56.50;;;23.82;33.27;95506.72;6087777;19;20012;-78
2021/12/12 06:42:17;;;;;;;;;;;19.70;56.50;;;23.81;33.13;95507.84;6091361;19;20255;-80
2021/12/12 06:44:18;;;;;;;;;;;19.70;56.50;;;23.82;33.60;95506.72;6086893;19;19976;-80
2021/12/12 06:46:20;;;;;;;;;;;19.70;56.60;;;23.82;33.66;95506.72;6085644;19;19915;-78
2021/12/12 06:48:21;;;;;;;;;;;19.70;56.50;;;23.82;33.25;95501.28;6091003;19;19915;-78
2021/12/12 06:50:22;;;;;;;;;;;19.70;56.50;;;23.82;33.54;95500.50;6091531;19;20713;-80
2021/12/12 06:52:23;;;;;;;;;;;19.70;56.60;;;23.82;33.33;95509.44;6089959;19;19914;-80
2021/12/12 06:54:26;;;;;;;;;;;19.70;56.50;;;23.82;33.67;95505.94;6086091;19;19917;-78
2021/12/12 06:56:28;;;;;;;;;;;19.70;56.50;;;23.82;33.53;95508.66;6092406;19;19935;-79
2021/12/12 06:58:30;;;;;;;;;;;19.70;56.60;;;23.81;33.51;95512.50;6090827;19;19929;-78
2021/12/12 07:00:31;;;;;;;;;;;19.70;56.60;;;23.81;33.39;95510.56;6085194;19;19915;-78
2021/12/12 07:02:32;;;;;;;;;;;19.70;56.60;;;23.82;33.67;95506.72;6090601;19;19915;-79
2021/12/12 07:04:33;;;;;;;;;;;19.70;56.60;;;23.83;33.41;95510.25;6087893;19;19950;-80
2021/12/12 07:06:34;;;;;;;;;;;19.70;56.60;;;23.84;33.16;95514.56;6084119;19;19940;-78
2021/12/12 07:08:35;;;;;;;;;;;19.70;56.60;;;23.83;33.49;95519.22;6079603;19;19914;-78
2021/12/12 07:10:36;;;;;;;;;;;19.70;56.60;;;23.81;33.40;95516.03;6084660;19;19915;-76
2021/12/12 07:12:39;;;;;;;;;;;19.70;56.70;;;23.82;33.44;95511.38;6077195;19;20445;-77
2021/12/12 07:14:40;;;;;;;;;;;19.70;56.60;;;23.83;33.43;95519.22;6073286;19;19926;-77
2021/12/12 07:16:42;;;;;;;;;;;19.70;56.70;;;23.83;33.28;95519.22;6077512;19;20022;-81
2021/12/12 07:18:44;;;;;;;;;;;19.70;56.70;;;23.82;33.55;95523.06;6078141;19;21429;-80
2021/12/12 07:20:47;;;;;;;;;;;19.70;56.70;;;23.84;33.57;95523.53;6094138;19;19957;-80
2021/12/12 07:22:48;;;;;;;;;;;19.70;56.70;;;23.86;33.57;95529.47;6065801;19;19922;-79
2021/12/12 07:24:49;;;;;;;;;;;19.70;56.50;;;23.86;33.20;95537.63;6071079;19;20674;-78
2021/12/12 07:26:50;;;;;;;;;;;19.70;56.20;;;23.87;33.33;95531.06;6081138;19;19918;-78
2021/12/12 07:28:52;;;;;;;;;;;19.70;56.40;;;23.88;33.26;95537.31;6080301;19;19914;-78
2021/12/12 07:30:53;;;;;;;;;;;19.70;56.60;;;23.87;33.30;95536.50;6074747;19;19911;-79
2021/12/12 07:32:54;;;;;;;;;;;19.60;56.90;;;23.88;33.45;95540.81;6079071;19;20699;-80
2021/12/12 07:34:55;;;;;;;;;;;19.70;57.10;;;23.88;33.39;95545.47;6081066;19;20696;-79
2021/12/12 07:37:00;;;;;;;;;;;19.70;57.10;;;23.88;33.82;95550.91;6080555;19;20009;-78
2021/12/12 07:39:05;;;;;;;;;;;19.70;57.10;;;23.88;33.83;95556.38;6072467;19;22649;-79
2021/12/12 07:41:06;;;;;;;;;;;19.70;57.20;;;23.89;33.87;95555.25;6077394;19;19926;-81
2021/12/12 07:43:07;;;;;;;;;;;19.70;57.20;;;23.89;33.59;95555.25;6090138;19;19923;-80
2021/12/12 07:45:08;;;;;;;;;;;19.70;57.20;;;23.89;33.47;95564.22;6091564;19;19918;-80
2021/12/12 07:47:10;;;;;;;;;;;19.70;57.20;;;23.88;33.52;95559.09;6092438;19;19970;-78
2021/12/12 07:49:12;;;;;;;;;;;19.70;57.20;;;23.88;33.81;95559.09;6091613;19;20015;-81
2021/12/12 07:51:13;;;;;;;;;;;19.70;57.20;;;23.88;33.77;95550.91;6079447;19;19910;-80
2021/12/12 07:53:14;;;;;;;;;;;19.70;57.20;;;23.88;33.65;95557.16;6078455;19;19990;-81
2021/12/12 07:55:15;;;;;;;;;;;19.70;57.20;;;23.88;33.55;95559.09;6086037;19;20692;-78
2021/12/12 07:57:17;;;;;;;;;;;19.70;57.30;;;23.88;33.48;95559.88;6089308;19;19919;-78
2021/12/12 07:59:19;;;;;;;;;;;19.70;57.30;;;23.88;33.86;95554.44;6080052;19;19970;-78
2021/12/12 08:01:19;;;;;;;;;;;19.70;57.20;;;23.88;33.73;95553.66;6077285;19;19939;-79
2021/12/12 08:03:24;;;;;;;;;;;19.70;57.20;;;23.88;33.87;95549.00;6078738;19;19971;-79
2021/12/12 08:05:28;;;;;;;;;;;19.70;57.30;;;23.89;33.86;95550.59;6075234;19;20033;-81
2021/12/12 08:07:29;;;;;;;;;;;19.70;57.30;;;23.88;33.82;95551.72;6080459;19;19925;-78
2021/12/12 08:09:30;;;;;;;;;;;19.70;57.30;;;23.87;33.70;95561.00;6079750;19;19928;-78
2021/12/12 08:11:33;;;;;;;;;;;19.80;57.50;;;23.89;33.65;95557.97;6074607;19;19918;-77
2021/12/12 08:13:34;;;;;;;;;;;19.70;57.30;;;23.89;33.80;95566.94;6085408;19;20722;-80
2021/12/12 08:15:35;;;;;;;;;;;19.80;57.40;;;23.88;33.86;95565.34;6084712;19;20743;-80
2021/12/12 08:17:37;;;;;;;;;;;19.70;57.40;;;23.87;33.52;95561.00;6093242;19;19914;-79
2021/12/12 08:19:38;;;;;;;;;;;19.70;57.30;;;23.88;33.54;95565.34;6078870;19;19927;-79
2021/12/12 08:21:39;;;;;;;;;;;19.70;57.30;;;23.89;34.02;95560.69;6081978;19;19926;-80
2021/12/12 08:23:39;;;;;;;;;;;19.70;57.30;;;23.88;33.94;95564.53;6092489;19;19943;-78
2021/12/12 08:25:43;;;;;;;;;;;19.70;57.40;;;23.88;33.97;95559.88;6081532;19;19918;-78
2021/12/12 08:27:43;;;;;;;;;;;19.70;57.30;;;23.88;33.87;95561.81;6091637;19;19919;-79
2021/12/12 08:29:44;;;;;;;;;;;19.70;57.30;;;23.88;33.88;95567.25;6091693;19;19919;-81
2021/12/12 08:31:46;;;;;;;;;;;19.70;57.40;;;23.88;33.67;95568.06;6087949;19;19921;-79
2021/12/12 08:33:46;;;;;;;;;;;19.70;57.30;;;23.88;33.80;95568.06;6076005;19;20228;-80
2021/12/12 08:35:47;;;;;;;;;;;19.70;57.50;;;23.89;33.64;95574.31;6078257;19;19911;-80
2021/12/12 08:37:48;;;;;;;;;;;19.70;57.40;;;23.89;33.56;95577.03;6094400;19;19969;-79
2021/12/12 08:39:49;;;;;;;;;;;19.70;57.30;;;23.89;33.96;95579.75;6084664;19;19948;-79
2021/12/12 08:41:51;;;;;;;;;;;19.70;57.30;;;23.89;33.55;95579.75;6090250;19;19937;-79
2021/12/12 08:43:51;;;;;;;;;;;19.70;57.30;;;23.88;33.59;95578.94;6091704;19;19942;-77
2021/12/12 08:46:01;;;;;;;;;;;19.70;57.30;;;23.90;33.90;95575.91;6080753;19;19975;-81
2021/12/12 08:48:03;;;;;;;;;;;19.70;57.30;;;23.91;33.96;95580.22;6075914;19;19914;-81
2021/12/12 08:50:06;;;;;;;;;;;19.80;57.40;;;23.88;33.76;95568.06;6079075;19;19918;-79
2021/12/12 08:52:10;;;;;;;;;;;19.70;57.30;;;23.89;33.79;95583.28;6077323;19;19918;-79
2021/12/12 08:54:15;;;;;;;;;;;19.80;57.40;;;23.90;33.79;95579.44;6076951;19;19914;-78
2021/12/12 08:56:30;;;;;;;;;;;19.70;57.30;;;23.90;33.55;95573.97;6083734;19;19967;-77
2021/12/12 08:58:32;;;;;;;;;;;19.70;57.40;;;23.91;34.01;95581.03;6092879;19;19918;-81
2021/12/12 09:00:38;;;;;;;;;;;19.80;57.50;;;23.92;33.86;95582.63;6103496;19;20244;-80
2021/12/12 09:02:39;;;;;;;;;;;19.80;58.10;;;23.93;33.61;95584.22;6080124;19;20864;-80
2021/12/12 09:04:50;;;;;;;;;;;19.80;57.30;;;23.95;33.66;95586.63;6090402;19;19910;-77
2021/12/12 09:06:59;;;;;;;;;;;19.80;57.10;;;23.95;33.73;95579.25;6091839;19;19950;-77
2021/12/12 09:09:08;;;;;;;;;;;19.80;57.00;;;23.96;33.22;95577.34;6084587;19;20265;-80
2021/12/12 09:11:19;;;;;;;;;;;19.80;57.00;;;23.97;33.25;95584.38;6066048;19;19933;-80
2021/12/12 09:13:31;;;;;;;;;;;19.80;56.80;;;23.97;33.27;95574.28;6086105;19;20257;-81
2021/12/12 09:15:34;;;;;;;;;;;19.80;56.90;;;23.98;33.53;95575.88;6075607;19;19915;-79
2021/12/12 09:17:44;;;;;;;;;;;19.80;56.70;;;23.99;33.54;95577.47;6091104;19;20249;-81
2021/12/12 09:19:49;;;;;;;;;;;19.80;56.80;;;23.99;33.26;95574.75;6098298;19;19915;-79
2021/12/12 09:21:58;;;;;;;;;;;19.80;56.70;;;24.00;33.20;95573.63;6082862;19;19922;-81
2021/12/12 09:24:13;;;;;;;;;;;19.80;56.70;;;24.00;33.26;95572.84;6065709;19;19989;-81
2021/12/12 09:26:21;;;;;;;;;;;19.80;56.70;;;24.01;33.33;95574.44;6089502;19;19922;-80
2021/12/12 09:28:29;;;;;;;;;;;19.80;56.70;;;24.02;33.40;95576.06;6085950;19;20329;-83
2021/12/12 09:30:30;;;;;;;;;;;19.80;56.50;;;24.03;33.23;95577.66;6092665;19;19948;-79
2021/12/12 09:32:51;;;;;;;;;;;19.80;56.40;;;24.05;33.27;95580.84;6094619;19;19911;-80
2021/12/12 09:35:24;;;;;;;;;;;19.80;56.30;;;24.06;33.28;95577.81;6094083;19;19915;-80
2021/12/12 09:37:39;;;;;;;;;;;19.80;56.30;;;24.06;32.95;95574.28;6098245;19;19941;-79
2021/12/12 09:39:47;;;;;;;;;;;19.80;56.30;;;24.09;33.16;95575.56;6089973;19;19921;-80
2021/12/12 09:42:32;;;;;;;;;;;19.80;56.30;;;24.10;32.75;95585.34;6094172;19;19915;-83
2021/12/12 09:44:44;;;;;;;;;;;19.80;56.30;;;24.10;33.24;95577.97;6095692;19;19915;-79
2021/12/12 09:47:12;;;;;;;;;;;19.80;56.20;;;24.11;33.08;95576.03;6095492;19;19922;-82
2021/12/12 09:52:13;;;;;;;;;;;19.80;56.10;;;24.12;33.10;95580.34;6082861;19;19987;-82